sensor_id;sensor_type;location;lat;lon;timestamp;P1;durP1;ratioP1;P2;durP2;ratioP2
2624;SDS011;1322;53.256;10.386;2022-11-15T00:02:21;30.00;;;19.27;;
2624;SDS011;1322;53.256;10.386;2022-11-15T00:04:47;28.03;;;20.23;;
2624;SDS011;1322;53.256;10.386;2022-11-15T00:07:12;36.00;;;21.73;;
2624;SDS011;1322;53.256;10.386;2022-11-15T00:09:38;30.97;;;20.53;;
2624;SDS011;1322;53.256;10.386;2022-11-15T00:12:04;26.70;;;17.93;;
2624;SDS011;1322;53.256;10.386;2022-11-15T00:14:29;26.83;;;18.53;;
2624;SDS011;1322;53.256;10.386;2022-11-15T00:16:58;28.00;;;21.60;;
2624;SDS011;1322;53.256;10.386;2022-11-15T00:19:23;28.03;;;18.80;;
2624;SDS011;1322;53.256;10.386;2022-11-15T00:21:52;29.20;;;19.57;;
2624;SDS011;1322;53.256;10.386;2022-11-15T00:24:17;31.07;;;20.27;;
2624;SDS011;1322;53.256;10.386;2022-11-15T00:26:43;29.70;;;20.90;;
2624;SDS011;1322;53.256;10.386;2022-11-15T00:29:09;24.27;;;18.10;;
2624;SDS011;1322;53.256;10.386;2022-11-15T00:31:34;28.87;;;19.50;;
2624;SDS011;1322;53.256;10.386;2022-11-15T00:34:00;30.00;;;19.13;;
2624;SDS011;1322;53.256;10.386;2022-11-15T00:36:26;25.43;;;18.90;;
2624;SDS011;1322;53.256;10.386;2022-11-15T00:38:51;26.33;;;18.93;;
2624;SDS011;1322;53.256;10.386;2022-11-15T00:41:17;28.20;;;19.40;;
2624;SDS011;1322;53.256;10.386;2022-11-15T00:43:42;25.50;;;16.93;;
2624;SDS011;1322;53.256;10.386;2022-11-15T00:46:08;24.40;;;18.40;;
2624;SDS011;1322;53.256;10.386;2022-11-15T00:48:35;28.50;;;18.60;;
2624;SDS011;1322;53.256;10.386;2022-11-15T00:51:01;26.20;;;17.90;;
2624;SDS011;1322;53.256;10.386;2022-11-15T00:53:26;23.80;;;17.27;;
2624;SDS011;1322;53.256;10.386;2022-11-15T00:55:52;26.30;;;18.20;;
2624;SDS011;1322;53.256;10.386;2022-11-15T00:58:18;23.97;;;18.50;;
2624;SDS011;1322;53.256;10.386;2022-11-15T01:00:44;25.53;;;17.50;;
2624;SDS011;1322;53.256;10.386;2022-11-15T01:03:09;28.40;;;19.10;;
2624;SDS011;1322;53.256;10.386;2022-11-15T01:05:37;26.50;;;18.33;;
2624;SDS011;1322;53.256;10.386;2022-11-15T01:08:03;31.60;;;19.80;;
2624;SDS011;1322;53.256;10.386;2022-11-15T01:10:29;30.23;;;19.47;;
2624;SDS011;1322;53.256;10.386;2022-11-15T01:12:54;24.87;;;17.67;;
2624;SDS011;1322;53.256;10.386;2022-11-15T01:15:20;30.00;;;20.10;;
2624;SDS011;1322;53.256;10.386;2022-11-15T01:17:45;26.20;;;18.10;;
2624;SDS011;1322;53.256;10.386;2022-11-15T01:20:11;26.10;;;18.17;;
2624;SDS011;1322;53.256;10.386;2022-11-15T01:22:37;25.57;;;18.67;;
2624;SDS011;1322;53.256;10.386;2022-11-15T01:25:02;30.33;;;20.10;;
2624;SDS011;1322;53.256;10.386;2022-11-15T01:27:28;27.30;;;19.07;;
2624;SDS011;1322;53.256;10.386;2022-11-15T01:29:54;31.30;;;19.00;;
2624;SDS011;1322;53.256;10.386;2022-11-15T01:32:20;27.53;;;19.00;;
2624;SDS011;1322;53.256;10.386;2022-11-15T01:34:45;28.50;;;19.03;;
2624;SDS011;1322;53.256;10.386;2022-11-15T01:37:11;26.60;;;18.93;;
2624;SDS011;1322;53.256;10.386;2022-11-15T01:39:36;27.27;;;17.47;;
2624;SDS011;1322;53.256;10.386;2022-11-15T01:42:02;29.30;;;17.60;;
2624;SDS011;1322;53.256;10.386;2022-11-15T01:47:00;29.30;;;18.43;;
2624;SDS011;1322;53.256;10.386;2022-11-15T01:49:28;23.73;;;16.50;;
2624;SDS011;1322;53.256;10.386;2022-11-15T01:51:57;27.00;;;17.53;;
2624;SDS011;1322;53.256;10.386;2022-11-15T01:54:23;23.80;;;17.27;;
2624;SDS011;1322;53.256;10.386;2022-11-15T01:57:11;24.83;;;18.00;;
2624;SDS011;1322;53.256;10.386;2022-11-15T01:59:37;25.20;;;18.50;;
2624;SDS011;1322;53.256;10.386;2022-11-15T02:02:04;23.53;;;17.70;;
2624;SDS011;1322;53.256;10.386;2022-11-15T02:04:35;22.67;;;16.93;;
2624;SDS011;1322;53.256;10.386;2022-11-15T02:07:11;25.20;;;18.47;;
2624;SDS011;1322;53.256;10.386;2022-11-15T02:09:39;23.20;;;16.47;;
2624;SDS011;1322;53.256;10.386;2022-11-15T02:12:05;26.00;;;18.23;;
2624;SDS011;1322;53.256;10.386;2022-11-15T02:14:37;20.87;;;14.90;;
2624;SDS011;1322;53.256;10.386;2022-11-15T02:17:16;23.17;;;16.50;;
2624;SDS011;1322;53.256;10.386;2022-11-15T02:28:16;20.67;;;13.93;;
2624;SDS011;1322;53.256;10.386;2022-11-15T02:33:36;21.33;;;15.97;;
2624;SDS011;1322;53.256;10.386;2022-11-15T02:42:06;22.17;;;16.17;;
2624;SDS011;1322;53.256;10.386;2022-11-15T02:44:56;23.10;;;15.77;;
2624;SDS011;1322;53.256;10.386;2022-11-15T02:47:28;25.50;;;15.40;;
2624;SDS011;1322;53.256;10.386;2022-11-15T02:50:05;22.53;;;16.20;;
2624;SDS011;1322;53.256;10.386;2022-11-15T02:52:33;21.17;;;16.53;;
2624;SDS011;1322;53.256;10.386;2022-11-15T02:55:00;20.77;;;16.17;;
2624;SDS011;1322;53.256;10.386;2022-11-15T02:57:44;23.90;;;16.13;;
2624;SDS011;1322;53.256;10.386;2022-11-15T03:00:17;26.33;;;18.73;;
2624;SDS011;1322;53.256;10.386;2022-11-15T03:08:12;28.23;;;17.70;;
2624;SDS011;1322;53.256;10.386;2022-11-15T03:10:49;22.30;;;17.20;;
2624;SDS011;1322;53.256;10.386;2022-11-15T03:18:53;23.83;;;15.63;;
2624;SDS011;1322;53.256;10.386;2022-11-15T03:21:52;21.37;;;14.97;;
2624;SDS011;1322;53.256;10.386;2022-11-15T03:24:21;31.60;;;17.33;;
2624;SDS011;1322;53.256;10.386;2022-11-15T03:26:50;22.63;;;14.67;;
2624;SDS011;1322;53.256;10.386;2022-11-15T03:29:26;24.97;;;16.17;;
2624;SDS011;1322;53.256;10.386;2022-11-15T03:32:00;22.50;;;17.50;;
2624;SDS011;1322;53.256;10.386;2022-11-15T03:37:04;25.10;;;17.10;;
2624;SDS011;1322;53.256;10.386;2022-11-15T03:39:30;23.20;;;16.60;;
2624;SDS011;1322;53.256;10.386;2022-11-15T03:44:36;25.20;;;17.00;;
2624;SDS011;1322;53.256;10.386;2022-11-15T03:47:16;22.53;;;16.50;;
2624;SDS011;1322;53.256;10.386;2022-11-15T03:49:44;22.87;;;15.80;;
2624;SDS011;1322;53.256;10.386;2022-11-15T03:52:14;20.97;;;16.10;;
2624;SDS011;1322;53.256;10.386;2022-11-15T03:54:47;22.23;;;14.90;;
2624;SDS011;1322;53.256;10.386;2022-11-15T03:57:16;21.07;;;15.33;;
2624;SDS011;1322;53.256;10.386;2022-11-15T03:59:42;24.00;;;16.13;;
2624;SDS011;1322;53.256;10.386;2022-11-15T04:02:07;29.30;;;16.27;;
2624;SDS011;1322;53.256;10.386;2022-11-15T04:04:33;22.27;;;15.00;;
2624;SDS011;1322;53.256;10.386;2022-11-15T04:06:58;23.17;;;16.93;;
2624;SDS011;1322;53.256;10.386;2022-11-15T04:09:24;19.40;;;14.70;;
2624;SDS011;1322;53.256;10.386;2022-11-15T04:11:50;21.60;;;15.73;;
2624;SDS011;1322;53.256;10.386;2022-11-15T05:44:01;19.90;;;13.70;;
2624;SDS011;1322;53.256;10.386;2022-11-15T05:46:34;21.00;;;15.17;;
2624;SDS011;1322;53.256;10.386;2022-11-15T05:49:01;22.17;;;15.07;;
2624;SDS011;1322;53.256;10.386;2022-11-15T05:51:29;21.10;;;14.60;;
2624;SDS011;1322;53.256;10.386;2022-11-15T05:53:55;23.40;;;14.53;;
2624;SDS011;1322;53.256;10.386;2022-11-15T05:56:23;22.77;;;15.90;;
2624;SDS011;1322;53.256;10.386;2022-11-15T05:58:49;19.10;;;13.33;;
2624;SDS011;1322;53.256;10.386;2022-11-15T06:01:15;21.73;;;14.87;;
2624;SDS011;1322;53.256;10.386;2022-11-15T06:03:40;20.17;;;14.80;;
2624;SDS011;1322;53.256;10.386;2022-11-15T06:06:06;20.40;;;14.43;;
2624;SDS011;1322;53.256;10.386;2022-11-15T06:08:32;23.63;;;14.10;;
2624;SDS011;1322;53.256;10.386;2022-11-15T06:11:02;21.67;;;14.43;;
2624;SDS011;1322;53.256;10.386;2022-11-15T06:13:29;25.17;;;16.20;;
2624;SDS011;1322;53.256;10.386;2022-11-15T06:15:57;23.57;;;15.43;;
2624;SDS011;1322;53.256;10.386;2022-11-15T06:18:23;21.93;;;15.90;;
2624;SDS011;1322;53.256;10.386;2022-11-15T06:20:49;22.70;;;16.33;;
2624;SDS011;1322;53.256;10.386;2022-11-15T06:23:14;26.57;;;16.80;;
2624;SDS011;1322;53.256;10.386;2022-11-15T06:25:40;19.43;;;14.03;;
2624;SDS011;1322;53.256;10.386;2022-11-15T06:28:06;22.10;;;14.80;;
2624;SDS011;1322;53.256;10.386;2022-11-15T06:30:31;20.77;;;14.30;;
2624;SDS011;1322;53.256;10.386;2022-11-15T06:33:06;17.30;;;13.63;;
2624;SDS011;1322;53.256;10.386;2022-11-15T06:35:34;23.47;;;15.07;;
2624;SDS011;1322;53.256;10.386;2022-11-15T06:38:04;20.30;;;15.73;;
2624;SDS011;1322;53.256;10.386;2022-11-15T06:40:35;20.17;;;14.13;;
2624;SDS011;1322;53.256;10.386;2022-11-15T06:43:03;21.37;;;15.10;;
2624;SDS011;1322;53.256;10.386;2022-11-15T06:45:29;21.30;;;15.87;;
2624;SDS011;1322;53.256;10.386;2022-11-15T06:47:55;19.70;;;14.50;;
2624;SDS011;1322;53.256;10.386;2022-11-15T06:50:21;23.83;;;15.20;;
2624;SDS011;1322;53.256;10.386;2022-11-15T06:52:47;20.90;;;16.10;;
2624;SDS011;1322;53.256;10.386;2022-11-15T06:55:12;18.90;;;14.60;;
2624;SDS011;1322;53.256;10.386;2022-11-15T06:57:45;22.70;;;15.17;;
2624;SDS011;1322;53.256;10.386;2022-11-15T07:00:12;23.90;;;16.70;;
2624;SDS011;1322;53.256;10.386;2022-11-15T07:02:38;20.40;;;14.20;;
2624;SDS011;1322;53.256;10.386;2022-11-15T07:05:04;26.57;;;17.60;;
2624;SDS011;1322;53.256;10.386;2022-11-15T07:07:30;23.13;;;15.77;;
2624;SDS011;1322;53.256;10.386;2022-11-15T07:09:55;24.27;;;20.40;;
2624;SDS011;1322;53.256;10.386;2022-11-15T07:12:21;24.47;;;17.73;;
2624;SDS011;1322;53.256;10.386;2022-11-15T07:14:47;21.43;;;15.40;;
2624;SDS011;1322;53.256;10.386;2022-11-15T07:17:12;21.20;;;15.97;;
2624;SDS011;1322;53.256;10.386;2022-11-15T07:19:38;24.37;;;14.43;;
2624;SDS011;1322;53.256;10.386;2022-11-15T07:22:03;19.47;;;14.90;;
2624;SDS011;1322;53.256;10.386;2022-11-15T07:24:29;22.20;;;15.27;;
2624;SDS011;1322;53.256;10.386;2022-11-15T07:26:55;20.60;;;14.67;;
2624;SDS011;1322;53.256;10.386;2022-11-15T07:29:20;22.63;;;14.17;;
2624;SDS011;1322;53.256;10.386;2022-11-15T07:31:46;21.33;;;15.37;;
2624;SDS011;1322;53.256;10.386;2022-11-15T07:34:11;20.70;;;15.10;;
2624;SDS011;1322;53.256;10.386;2022-11-15T07:36:37;23.27;;;15.07;;
2624;SDS011;1322;53.256;10.386;2022-11-15T07:39:05;21.00;;;14.10;;
2624;SDS011;1322;53.256;10.386;2022-11-15T07:41:31;19.07;;;14.17;;
2624;SDS011;1322;53.256;10.386;2022-11-15T07:43:59;19.37;;;14.60;;
2624;SDS011;1322;53.256;10.386;2022-11-15T07:46:26;22.23;;;15.50;;
2624;SDS011;1322;53.256;10.386;2022-11-15T07:48:52;23.17;;;15.50;;
2624;SDS011;1322;53.256;10.386;2022-11-15T07:51:17;20.70;;;13.80;;
2624;SDS011;1322;53.256;10.386;2022-11-15T07:53:43;22.60;;;18.70;;
2624;SDS011;1322;53.256;10.386;2022-11-15T07:56:09;22.00;;;14.90;;
2624;SDS011;1322;53.256;10.386;2022-11-15T07:58:35;20.77;;;13.83;;
2624;SDS011;1322;53.256;10.386;2022-11-15T08:01:05;21.23;;;15.10;;
2624;SDS011;1322;53.256;10.386;2022-11-15T08:03:31;17.57;;;13.23;;
2624;SDS011;1322;53.256;10.386;2022-11-15T08:05:58;18.90;;;15.67;;
2624;SDS011;1322;53.256;10.386;2022-11-15T08:08:23;18.37;;;14.67;;
2624;SDS011;1322;53.256;10.386;2022-11-15T08:10:49;20.23;;;14.60;;
2624;SDS011;1322;53.256;10.386;2022-11-15T08:13:15;18.37;;;15.20;;
2624;SDS011;1322;53.256;10.386;2022-11-15T08:15:41;24.80;;;16.20;;
2624;SDS011;1322;53.256;10.386;2022-11-15T08:18:14;20.80;;;14.63;;
2624;SDS011;1322;53.256;10.386;2022-11-15T08:20:41;23.63;;;14.43;;
2624;SDS011;1322;53.256;10.386;2022-11-15T08:23:07;21.17;;;14.27;;
2624;SDS011;1322;53.256;10.386;2022-11-15T08:25:35;19.33;;;13.80;;
2624;SDS011;1322;53.256;10.386;2022-11-15T08:28:02;18.20;;;14.20;;
2624;SDS011;1322;53.256;10.386;2022-11-15T08:30:30;20.80;;;14.17;;
2624;SDS011;1322;53.256;10.386;2022-11-15T08:32:59;16.43;;;13.53;;
2624;SDS011;1322;53.256;10.386;2022-11-15T08:35:25;18.33;;;13.40;;
2624;SDS011;1322;53.256;10.386;2022-11-15T08:37:52;19.23;;;13.43;;
2624;SDS011;1322;53.256;10.386;2022-11-15T08:40:18;21.73;;;13.97;;
2624;SDS011;1322;53.256;10.386;2022-11-15T08:42:45;18.07;;;13.40;;
2624;SDS011;1322;53.256;10.386;2022-11-15T08:45:11;16.93;;;13.23;;
2624;SDS011;1322;53.256;10.386;2022-11-15T08:47:37;19.47;;;13.90;;
2624;SDS011;1322;53.256;10.386;2022-11-15T08:50:03;15.17;;;12.80;;
2624;SDS011;1322;53.256;10.386;2022-11-15T08:52:29;15.10;;;12.40;;
2624;SDS011;1322;53.256;10.386;2022-11-15T08:54:54;17.13;;;12.33;;
2624;SDS011;1322;53.256;10.386;2022-11-15T08:57:20;22.03;;;12.07;;
2624;SDS011;1322;53.256;10.386;2022-11-15T08:59:45;18.77;;;12.87;;
2624;SDS011;1322;53.256;10.386;2022-11-15T09:02:12;23.57;;;14.07;;
2624;SDS011;1322;53.256;10.386;2022-11-15T09:04:39;19.83;;;14.80;;
2624;SDS011;1322;53.256;10.386;2022-11-15T09:07:09;18.10;;;12.97;;
2624;SDS011;1322;53.256;10.386;2022-11-15T09:09:35;20.83;;;13.10;;
2624;SDS011;1322;53.256;10.386;2022-11-15T09:12:04;16.73;;;13.43;;
2624;SDS011;1322;53.256;10.386;2022-11-15T09:14:31;18.87;;;14.10;;
2624;SDS011;1322;53.256;10.386;2022-11-15T09:16:56;16.70;;;12.97;;
2624;SDS011;1322;53.256;10.386;2022-11-15T09:19:23;17.67;;;12.63;;
2624;SDS011;1322;53.256;10.386;2022-11-15T09:21:49;24.00;;;12.77;;
2624;SDS011;1322;53.256;10.386;2022-11-15T09:24:14;18.17;;;13.20;;
2624;SDS011;1322;53.256;10.386;2022-11-15T09:26:40;29.30;;;22.10;;
2624;SDS011;1322;53.256;10.386;2022-11-15T09:29:06;21.67;;;13.53;;
2624;SDS011;1322;53.256;10.386;2022-11-15T09:31:32;15.90;;;12.40;;
2624;SDS011;1322;53.256;10.386;2022-11-15T09:33:58;17.10;;;12.80;;
2624;SDS011;1322;53.256;10.386;2022-11-15T09:36:23;19.00;;;13.43;;
2624;SDS011;1322;53.256;10.386;2022-11-15T09:38:49;16.87;;;12.10;;
2624;SDS011;1322;53.256;10.386;2022-11-15T09:41:19;19.83;;;14.00;;
2624;SDS011;1322;53.256;10.386;2022-11-15T09:44:09;17.77;;;12.10;;
2624;SDS011;1322;53.256;10.386;2022-11-15T09:49:56;17.70;;;12.13;;
2624;SDS011;1322;53.256;10.386;2022-11-15T09:52:24;14.67;;;11.70;;
2624;SDS011;1322;53.256;10.386;2022-11-15T09:54:51;16.40;;;11.87;;
2624;SDS011;1322;53.256;10.386;2022-11-15T10:04:58;15.90;;;10.97;;
2624;SDS011;1322;53.256;10.386;2022-11-15T10:07:32;13.80;;;10.43;;
2624;SDS011;1322;53.256;10.386;2022-11-15T10:10:24;14.83;;;11.13;;
2624;SDS011;1322;53.256;10.386;2022-11-15T10:13:26;15.23;;;10.30;;
2624;SDS011;1322;53.256;10.386;2022-11-15T10:15:57;15.07;;;11.20;;
2624;SDS011;1322;53.256;10.386;2022-11-15T10:21:20;16.27;;;11.40;;
2624;SDS011;1322;53.256;10.386;2022-11-15T10:23:48;13.70;;;10.60;;
2624;SDS011;1322;53.256;10.386;2022-11-15T10:26:16;13.17;;;11.27;;
2624;SDS011;1322;53.256;10.386;2022-11-15T10:28:42;12.60;;;9.47;;
2624;SDS011;1322;53.256;10.386;2022-11-15T10:31:27;13.57;;;9.13;;
2624;SDS011;1322;53.256;10.386;2022-11-15T10:34:12;13.13;;;9.90;;
2624;SDS011;1322;53.256;10.386;2022-11-15T10:39:18;10.90;;;9.10;;
2624;SDS011;1322;53.256;10.386;2022-11-15T10:41:44;11.93;;;10.30;;
2624;SDS011;1322;53.256;10.386;2022-11-15T10:44:18;13.63;;;9.27;;
2624;SDS011;1322;53.256;10.386;2022-11-15T10:46:47;13.67;;;9.47;;
2624;SDS011;1322;53.256;10.386;2022-11-15T10:49:25;13.53;;;9.33;;
2624;SDS011;1322;53.256;10.386;2022-11-15T10:52:12;11.00;;;9.27;;
2624;SDS011;1322;53.256;10.386;2022-11-15T10:57:14;18.90;;;9.27;;
2624;SDS011;1322;53.256;10.386;2022-11-15T10:59:48;15.27;;;9.80;;
2624;SDS011;1322;53.256;10.386;2022-11-15T11:04:50;12.77;;;8.90;;
2624;SDS011;1322;53.256;10.386;2022-11-15T11:07:24;15.77;;;9.27;;
2624;SDS011;1322;53.256;10.386;2022-11-15T11:10:03;10.83;;;8.83;;
2624;SDS011;1322;53.256;10.386;2022-11-15T11:12:45;11.67;;;9.67;;
2624;SDS011;1322;53.256;10.386;2022-11-15T11:15:12;11.37;;;9.40;;
2624;SDS011;1322;53.256;10.386;2022-11-15T11:28:28;14.80;;;9.10;;
2624;SDS011;1322;53.256;10.386;2022-11-15T11:36:43;9.67;;;6.90;;
2624;SDS011;1322;53.256;10.386;2022-11-15T11:39:20;10.30;;;8.13;;
2624;SDS011;1322;53.256;10.386;2022-11-15T11:42:16;13.70;;;9.50;;
2624;SDS011;1322;53.256;10.386;2022-11-15T11:47:23;9.40;;;7.67;;
2624;SDS011;1322;53.256;10.386;2022-11-15T11:50:10;13.13;;;8.77;;
2624;SDS011;1322;53.256;10.386;2022-11-15T11:52:47;11.60;;;7.90;;
2624;SDS011;1322;53.256;10.386;2022-11-15T11:55:30;10.87;;;7.27;;
2624;SDS011;1322;53.256;10.386;2022-11-15T12:00:51;13.50;;;8.20;;
2624;SDS011;1322;53.256;10.386;2022-11-15T12:05:57;11.70;;;8.30;;
2624;SDS011;1322;53.256;10.386;2022-11-15T12:08:40;10.13;;;7.47;;
2624;SDS011;1322;53.256;10.386;2022-11-15T12:14:38;10.07;;;7.27;;
2624;SDS011;1322;53.256;10.386;2022-11-15T12:17:12;10.30;;;7.23;;
2624;SDS011;1322;53.256;10.386;2022-11-15T12:19:43;8.63;;;7.23;;
2624;SDS011;1322;53.256;10.386;2022-11-15T12:22:28;8.87;;;7.53;;
2624;SDS011;1322;53.256;10.386;2022-11-15T12:25:05;8.43;;;7.07;;
2624;SDS011;1322;53.256;10.386;2022-11-15T12:30:11;9.80;;;8.80;;
2624;SDS011;1322;53.256;10.386;2022-11-15T12:32:48;7.93;;;7.13;;
2624;SDS011;1322;53.256;10.386;2022-11-15T12:35:40;9.00;;;7.20;;
2624;SDS011;1322;53.256;10.386;2022-11-15T12:38:11;11.20;;;6.73;;
2624;SDS011;1322;53.256;10.386;2022-11-15T12:40:38;9.50;;;7.03;;
2624;SDS011;1322;53.256;10.386;2022-11-15T12:43:38;9.53;;;6.77;;
2624;SDS011;1322;53.256;10.386;2022-11-15T12:46:08;8.07;;;7.13;;
2624;SDS011;1322;53.256;10.386;2022-11-15T12:48:46;12.83;;;7.90;;
2624;SDS011;1322;53.256;10.386;2022-11-15T12:51:14;9.13;;;6.73;;
2624;SDS011;1322;53.256;10.386;2022-11-15T12:53:40;7.50;;;6.70;;
2624;SDS011;1322;53.256;10.386;2022-11-15T12:56:24;9.70;;;7.13;;
2624;SDS011;1322;53.256;10.386;2022-11-15T13:11:53;10.60;;;7.60;;
2624;SDS011;1322;53.256;10.386;2022-11-15T13:17:29;9.43;;;8.43;;
2624;SDS011;1322;53.256;10.386;2022-11-15T13:30:51;14.00;;;7.70;;
2624;SDS011;1322;53.256;10.386;2022-11-15T13:33:20;9.07;;;8.17;;
2624;SDS011;1322;53.256;10.386;2022-11-15T13:35:57;10.30;;;8.33;;
2624;SDS011;1322;53.256;10.386;2022-11-15T13:38:30;12.77;;;8.27;;
2624;SDS011;1322;53.256;10.386;2022-11-15T13:40:57;10.37;;;8.13;;
2624;SDS011;1322;53.256;10.386;2022-11-15T13:43:28;8.40;;;7.00;;
2624;SDS011;1322;53.256;10.386;2022-11-15T13:46:06;10.10;;;7.60;;
2624;SDS011;1322;53.256;10.386;2022-11-15T13:48:32;10.40;;;7.40;;
2624;SDS011;1322;53.256;10.386;2022-11-15T13:50:59;11.07;;;7.80;;
2624;SDS011;1322;53.256;10.386;2022-11-15T13:53:28;10.63;;;7.73;;
2624;SDS011;1322;53.256;10.386;2022-11-15T13:55:55;9.50;;;7.47;;
2624;SDS011;1322;53.256;10.386;2022-11-15T13:58:23;8.80;;;7.63;;
2624;SDS011;1322;53.256;10.386;2022-11-15T14:00:48;9.87;;;7.40;;
2624;SDS011;1322;53.256;10.386;2022-11-15T14:03:28;17.43;;;13.50;;
2624;SDS011;1322;53.256;10.386;2022-11-15T14:06:09;11.77;;;7.70;;
2624;SDS011;1322;53.256;10.386;2022-11-15T14:08:40;9.77;;;7.00;;
2624;SDS011;1322;53.256;10.386;2022-11-15T14:11:27;10.20;;;6.77;;
2624;SDS011;1322;53.256;10.386;2022-11-15T14:19:06;14.37;;;8.73;;
2624;SDS011;1322;53.256;10.386;2022-11-15T14:21:35;9.20;;;8.00;;
2624;SDS011;1322;53.256;10.386;2022-11-15T14:24:14;9.30;;;7.57;;
2624;SDS011;1322;53.256;10.386;2022-11-15T14:26:41;8.10;;;6.63;;
2624;SDS011;1322;53.256;10.386;2022-11-15T14:29:23;10.07;;;6.57;;
2624;SDS011;1322;53.256;10.386;2022-11-15T14:31:49;9.00;;;7.37;;
2624;SDS011;1322;53.256;10.386;2022-11-15T14:34:15;8.23;;;6.77;;
2624;SDS011;1322;53.256;10.386;2022-11-15T14:36:41;8.33;;;7.37;;
2624;SDS011;1322;53.256;10.386;2022-11-15T14:39:06;11.40;;;7.70;;
2624;SDS011;1322;53.256;10.386;2022-11-15T14:41:34;9.33;;;7.37;;
2624;SDS011;1322;53.256;10.386;2022-11-15T14:44:08;8.10;;;6.57;;
2624;SDS011;1322;53.256;10.386;2022-11-15T14:46:36;10.50;;;8.07;;
2624;SDS011;1322;53.256;10.386;2022-11-15T14:49:01;7.47;;;6.67;;
2624;SDS011;1322;53.256;10.386;2022-11-15T14:51:27;8.50;;;7.03;;
2624;SDS011;1322;53.256;10.386;2022-11-15T14:53:52;9.13;;;7.50;;
2624;SDS011;1322;53.256;10.386;2022-11-15T14:56:20;8.63;;;7.23;;
2624;SDS011;1322;53.256;10.386;2022-11-15T14:58:45;9.97;;;7.60;;
2624;SDS011;1322;53.256;10.386;2022-11-15T15:03:46;8.20;;;6.97;;
2624;SDS011;1322;53.256;10.386;2022-11-15T15:06:12;10.33;;;7.17;;
2624;SDS011;1322;53.256;10.386;2022-11-15T15:08:41;7.50;;;6.67;;
2624;SDS011;1322;53.256;10.386;2022-11-15T15:11:10;11.43;;;7.47;;
2624;SDS011;1322;53.256;10.386;2022-11-15T15:13:56;13.47;;;8.07;;
2624;SDS011;1322;53.256;10.386;2022-11-15T15:16:24;12.33;;;8.20;;
2624;SDS011;1322;53.256;10.386;2022-11-15T15:18:50;16.03;;;8.23;;
2624;SDS011;1322;53.256;10.386;2022-11-15T15:21:22;11.70;;;7.87;;
2624;SDS011;1322;53.256;10.386;2022-11-15T15:23:50;10.17;;;7.30;;
2624;SDS011;1322;53.256;10.386;2022-11-15T15:26:16;10.27;;;7.70;;
2624;SDS011;1322;53.256;10.386;2022-11-15T15:28:42;9.90;;;8.43;;
2624;SDS011;1322;53.256;10.386;2022-11-15T15:31:08;11.80;;;9.27;;
2624;SDS011;1322;53.256;10.386;2022-11-15T15:33:37;10.40;;;8.27;;
2624;SDS011;1322;53.256;10.386;2022-11-15T15:36:02;13.03;;;8.20;;
2624;SDS011;1322;53.256;10.386;2022-11-15T15:38:28;10.20;;;7.67;;
2624;SDS011;1322;53.256;10.386;2022-11-15T15:40:54;10.90;;;8.37;;
2624;SDS011;1322;53.256;10.386;2022-11-15T15:43:20;11.17;;;7.93;;
2624;SDS011;1322;53.256;10.386;2022-11-15T15:45:46;9.33;;;7.17;;
2624;SDS011;1322;53.256;10.386;2022-11-15T15:48:15;11.23;;;8.03;;
2624;SDS011;1322;53.256;10.386;2022-11-15T15:50:42;9.60;;;7.90;;
2624;SDS011;1322;53.256;10.386;2022-11-15T15:53:08;11.57;;;8.07;;
2624;SDS011;1322;53.256;10.386;2022-11-15T15:55:38;9.67;;;7.60;;
2624;SDS011;1322;53.256;10.386;2022-11-15T15:58:04;9.67;;;8.77;;
2624;SDS011;1322;53.256;10.386;2022-11-15T16:00:30;10.83;;;8.07;;
2624;SDS011;1322;53.256;10.386;2022-11-15T16:02:58;9.27;;;8.30;;
2624;SDS011;1322;53.256;10.386;2022-11-15T16:05:24;10.67;;;7.97;;
2624;SDS011;1322;53.256;10.386;2022-11-15T16:07:50;13.77;;;8.97;;
2624;SDS011;1322;53.256;10.386;2022-11-15T16:10:20;13.47;;;9.47;;
2624;SDS011;1322;53.256;10.386;2022-11-15T16:12:51;12.57;;;9.60;;
2624;SDS011;1322;53.256;10.386;2022-11-15T16:15:18;10.83;;;8.90;;
2624;SDS011;1322;53.256;10.386;2022-11-15T16:17:51;33.60;;;25.53;;
2624;SDS011;1322;53.256;10.386;2022-11-15T16:20:23;13.70;;;11.13;;
2624;SDS011;1322;53.256;10.386;2022-11-15T16:23:08;12.20;;;9.53;;
2624;SDS011;1322;53.256;10.386;2022-11-15T16:25:39;11.87;;;9.87;;
2624;SDS011;1322;53.256;10.386;2022-11-15T16:28:22;21.10;;;12.23;;
2624;SDS011;1322;53.256;10.386;2022-11-15T16:31:02;16.90;;;12.80;;
2624;SDS011;1322;53.256;10.386;2022-11-15T16:33:29;16.33;;;11.87;;
2624;SDS011;1322;53.256;10.386;2022-11-15T16:35:55;14.63;;;10.70;;
2624;SDS011;1322;53.256;10.386;2022-11-15T16:38:20;15.57;;;11.07;;
2624;SDS011;1322;53.256;10.386;2022-11-15T16:40:46;15.77;;;10.30;;
2624;SDS011;1322;53.256;10.386;2022-11-15T16:43:12;15.40;;;11.40;;
2624;SDS011;1322;53.256;10.386;2022-11-15T16:45:37;17.93;;;10.90;;
2624;SDS011;1322;53.256;10.386;2022-11-15T16:48:03;13.83;;;11.40;;
2624;SDS011;1322;53.256;10.386;2022-11-15T16:50:30;17.73;;;11.00;;
2624;SDS011;1322;53.256;10.386;2022-11-15T16:52:59;14.60;;;10.67;;
2624;SDS011;1322;53.256;10.386;2022-11-15T16:55:26;13.70;;;10.37;;
2624;SDS011;1322;53.256;10.386;2022-11-15T16:57:53;17.53;;;12.40;;
2624;SDS011;1322;53.256;10.386;2022-11-15T17:00:20;15.87;;;13.03;;
2624;SDS011;1322;53.256;10.386;2022-11-15T17:02:47;13.30;;;11.03;;
2624;SDS011;1322;53.256;10.386;2022-11-15T17:05:14;16.57;;;10.93;;
2624;SDS011;1322;53.256;10.386;2022-11-15T17:07:41;10.23;;;8.97;;
2624;SDS011;1322;53.256;10.386;2022-11-15T17:10:08;12.90;;;10.57;;
2624;SDS011;1322;53.256;10.386;2022-11-15T17:12:36;15.30;;;11.37;;
2624;SDS011;1322;53.256;10.386;2022-11-15T17:15:02;17.20;;;11.37;;
2624;SDS011;1322;53.256;10.386;2022-11-15T17:17:28;16.93;;;10.67;;
2624;SDS011;1322;53.256;10.386;2022-11-15T17:19:55;15.80;;;11.00;;
2624;SDS011;1322;53.256;10.386;2022-11-15T17:22:20;14.10;;;9.93;;
2624;SDS011;1322;53.256;10.386;2022-11-15T17:24:46;13.30;;;10.00;;
2624;SDS011;1322;53.256;10.386;2022-11-15T17:27:12;11.53;;;9.40;;
2624;SDS011;1322;53.256;10.386;2022-11-15T17:29:39;16.87;;;10.73;;
2624;SDS011;1322;53.256;10.386;2022-11-15T17:32:05;12.93;;;10.27;;
2624;SDS011;1322;53.256;10.386;2022-11-15T17:34:31;13.83;;;10.23;;
2624;SDS011;1322;53.256;10.386;2022-11-15T17:36:56;13.73;;;9.40;;
2624;SDS011;1322;53.256;10.386;2022-11-15T17:39:22;12.50;;;8.63;;
2624;SDS011;1322;53.256;10.386;2022-11-15T17:41:49;11.17;;;8.47;;
2624;SDS011;1322;53.256;10.386;2022-11-15T17:44:15;12.20;;;9.17;;
2624;SDS011;1322;53.256;10.386;2022-11-15T17:46:43;13.50;;;9.20;;
2624;SDS011;1322;53.256;10.386;2022-11-15T17:49:09;12.40;;;8.93;;
2624;SDS011;1322;53.256;10.386;2022-11-15T17:51:35;12.10;;;10.27;;
2624;SDS011;1322;53.256;10.386;2022-11-15T17:54:00;16.33;;;10.00;;
2624;SDS011;1322;53.256;10.386;2022-11-15T17:56:27;12.17;;;8.93;;
2624;SDS011;1322;53.256;10.386;2022-11-15T17:58:58;19.10;;;10.83;;
2624;SDS011;1322;53.256;10.386;2022-11-15T18:03:54;9.03;;;7.70;;
2624;SDS011;1322;53.256;10.386;2022-11-15T18:06:21;10.83;;;7.90;;
2624;SDS011;1322;53.256;10.386;2022-11-15T18:08:49;12.53;;;8.03;;
2624;SDS011;1322;53.256;10.386;2022-11-15T18:11:17;10.67;;;8.37;;
2624;SDS011;1322;53.256;10.386;2022-11-15T18:13:47;9.07;;;8.13;;
2624;SDS011;1322;53.256;10.386;2022-11-15T18:16:14;9.70;;;8.00;;
2624;SDS011;1322;53.256;10.386;2022-11-15T18:18:42;9.50;;;7.40;;
2624;SDS011;1322;53.256;10.386;2022-11-15T18:23:41;8.83;;;7.10;;
2624;SDS011;1322;53.256;10.386;2022-11-15T18:26:11;8.83;;;7.00;;
2624;SDS011;1322;53.256;10.386;2022-11-15T18:28:39;10.13;;;8.57;;
2624;SDS011;1322;53.256;10.386;2022-11-15T18:31:16;12.10;;;8.63;;